ADDS METAR Data INFO
IDs: Format: Raw Decoded Include TAF

Data at: 2047 UTC 24 Jun 2018

KEAN 242035Z AUTO 31014G18KT 10SM VCTS SCT060 BKN070 BKN090 18/11 A3011 RMK AO2 LTG DSNT SE AND S T01780105
KEAN 242015Z AUTO 31010G18KT 10SM TS BKN060 16/10 A3012 RMK AO2 LTG DSNT S T01600100
KEAN 241955Z AUTO 32012G16KT 10SM SCT075 SCT090 SCT120 15/10 A3011 RMK AO2 LTG DSNT SE AND S P0001 T01500104
KEAN 241935Z AUTO 30007KT 10SM -VCTSRA SCT029 BKN060 BKN080 14/11 A3011 RMK AO2 LTG DSNT SE AND S P0001 T01400113
KEAN 241915Z AUTO 31007KT 10SM -RA SCT028 BKN060 OVC090 14/11 A3012 RMK AO2 LTG DSNT SE AND S P0001 T01350113
KEAN 241855Z AUTO 30007KT 5SM VCTSRA SCT041 SCT065 OVC100 12/10 A3012 RMK AO2 LTG DSNT E THRU SW P0006 T01200102
KEAN 241835Z AUTO 27007G18KT 5SM RA SCT027 BKN040 OVC110 12/10 A3012 RMK AO2 LTG DSNT E AND SW P0002 T01240098
KEAN 241815Z AUTO 28017G22KT 10SM SCT025 SCT033 OVC060 17/10 A3011 RMK AO2 LTG DSNT E AND SW T01690101
KEAN 241755Z AUTO 34003KT 10SM -VCTSRA SCT024 BKN070 OVC090 17/11 A3009 RMK AO2 LTG DSNT E AND SW 60001 T01660106 10169 20120
KEAN 241735Z AUTO 29004KT 10SM VCTS BKN090 16/10 A3010 RMK AO2 LTG DSNT S AND SW T01610100
KEAN 241715Z AUTO 28004KT 10SM BKN090 15/10 A3009 RMK AO2 LTG DSNT SE THRU SW T01500096
KEAN 241655Z AUTO 00000KT 10SM BKN075 OVC090 14/10 A3010 RMK AO2 LTG DSNT SE AND S T01430098
KEAN 241635Z AUTO 33004KT 10SM SCT046 SCT070 OVC075 14/10 A3009 RMK AO2 LTG DSNT SW T01380101
KEAN 241615Z AUTO 00000KT 10SM -RA SCT023 SCT043 OVC070 13/10 A3008 RMK AO2 LTG DSNT SE AND SW T01290100
KEAN 241555Z AUTO 00000KT 10SM -RA SCT046 BKN060 OVC090 12/09 A3009 RMK AO2 P0001 T01200092
KEAN 241535Z AUTO 29006KT 10SM -VCTSRA SCT055 BKN075 OVC100 12/10 A3009 RMK AO2 P0001 T01230096
KEAN 241515Z AUTO 30011G16KT 7SM -TSRA SCT047 OVC060 14/09 A3008 RMK AO2 LTG DSNT N SE AND SW T01370086
KEAN 241455Z AUTO 31008G16KT 280V340 10SM BKN060 OVC075 15/09 A3008 RMK AO2 LTG DSNT SW T01460091
KEAN 241435Z AUTO 31010G17KT 10SM VCTS BKN075 BKN085 14/09 A3007 RMK AO2 LTG DSNT S AND SW T01410087
KEAN 241415Z AUTO 31013G20KT 10SM VCTS SCT060 SCT075 SCT085 14/09 A3005 RMK AO2 LTG DSNT NE SW AND W T01410091
KEAN 241355Z AUTO 30013G19KT 10SM VCTS SCT110 14/10 A3005 RMK AO2 LTG DSNT SW T01380095
KEAN 241335Z AUTO 30009G15KT 10SM SCT075 BKN100 13/10 A3004 RMK AO2 T01260097
KEAN 241315Z AUTO 30008G14KT 10SM SCT075 BKN090 OVC110 12/10 A3004 RMK AO2 T01210096
KEAN 241255Z AUTO 29010G15KT 10SM SCT065 SCT090 OVC110 12/10 A3004 RMK AO2 T01200098
KEAN 241235Z AUTO 31010G15KT 10SM BKN050 BKN065 OVC110 12/10 A3003 RMK AO2 LTG DSNT N T01200100
KEAN 241215Z AUTO 32009G15KT 10SM SCT026 BKN050 OVC100 12/10 A3003 RMK AO2 T01210101
KEAN 241155Z AUTO 36004KT 10SM BKN110 12/11 A3001 RMK AO2 70011 T01200107 10140 20111
KEAN 241135Z AUTO 10SM SCT050 SCT120 12/11 A3001 RMK AO2 LTG DSNT N T01180108
KEAN 241115Z AUTO 00000KT 10SM SCT050 11/11 A3000 RMK AO2 LTG DSNT N T01140106
KEAN 241055Z AUTO 00000KT 10SM CLR 11/11 A2998 RMK AO2 T01130105
KEAN 241035Z AUTO 30003KT 10SM CLR 11/11 A2997 RMK AO2 LTG DSNT N T01120105
KEAN 241015Z AUTO 00000KT 10SM CLR 12/11 A2997 RMK AO2 T01160107
KEAN 240955Z AUTO 00000KT 10SM CLR 12/11 A2996 RMK AO2 LTG DSNT N T01230111
KEAN 240935Z AUTO 00000KT 10SM CLR 12/11 A2996 RMK AO2 T01170107
KEAN 240915Z AUTO 00000KT 10SM CLR 12/11 A2995 RMK AO2 T01230108
KEAN 240855Z AUTO 00000KT 10SM CLR 13/11 A2995 RMK AO2 T01280110
KEAN 240835Z AUTO 00000KT 10SM SCT080 13/11 A2995 RMK AO2 T01270112
KEAN 240815Z AUTO 34003KT 10SM BKN080 13/12 A2994 RMK AO2 T01340116
KEAN 240755Z AUTO 11004KT 10SM SCT080 14/12 A2996 RMK AO2 T01370116
KEAN 240735Z AUTO 14004KT 10SM CLR 14/11 A2997 RMK AO2 T01390114
KEAN 240715Z AUTO 00000KT 10SM SCT100 SCT120 14/12 A2998 RMK AO2 T01350120
KEAN 240655Z AUTO 11005KT 10SM VCTS SCT100 BKN120 14/12 A2995 RMK AO2 LTG DSNT S T01360121 402880125
KEAN 240635Z AUTO 13008KT 10SM SCT070 SCT095 OVC120 14/12 A2997 RMK AO2 LTG DSNT SE T01370121
KEAN 240615Z AUTO 09011KT 10SM -RA SCT070 BKN095 OVC110 14/12 A2994 RMK AO2 T01350121
KEAN 240555Z AUTO 17006KT 10SM -RA SCT060 SCT075 OVC085 14/12 A3000 RMK AO2 LTG DSNT W P0010 60011 T01350121 10205 20135
KEAN 240535Z AUTO 19005KT 7SM RA OVC060 14/12 A3003 RMK AO2 P0009 T01350120
KEAN 240515Z AUTO 21004KT 7SM RA OVC070 14/12 A3002 RMK AO2 P0003 T01370118
KEAN 240455Z AUTO 28007KT 10SM -RA BKN070 OVC090 14/12 A3001 RMK AO2 P0001 T01390115
KEAN 240435Z AUTO 29005KT 10SM -RA OVC080 14/12 A3000 RMK AO2 T01410118
KEAN 240415Z AUTO 27006KT 10SM -RA OVC090 14/12 A3000 RMK AO2 T01420120
KEAN 240355Z AUTO 30004KT 10SM -RA BKN100 OVC120 15/12 A2998 RMK AO2 T01490115
KEAN 240335Z AUTO 00000KT 10SM SCT080 SCT110 15/11 A2996 RMK AO2 T01510113
KEAN 240315Z AUTO 33011G20KT 10SM SCT065 SCT080 BKN120 15/11 A2993 RMK AO2 LTG DSNT NW T01510114
KEAN 240255Z AUTO 31010G16KT 10SM SCT065 BKN080 OVC120 16/11 A2996 RMK AO2 LTG DSNT W T01560114
KEAN 240235Z AUTO 32009KT 10SM -RA SCT075 OVC095 17/11 A2993 RMK AO2 LTG DSNT N AND W T01700112
KEAN 240215Z AUTO 00000KT 10SM BKN110 18/10 A2993 RMK AO2 T01770098
KEAN 240155Z AUTO 02005KT 10SM CLR 18/10 A2988 RMK AO2 T01810098
KEAN 240135Z AUTO 03006KT 10SM SCT120 19/10 A2988 RMK AO2 LTG DSNT N T01860100
KEAN 240115Z AUTO 03006KT 10SM SCT120 19/10 A2988 RMK AO2 LTG DSNT N T01910101
KEAN 240055Z AUTO 10SM VCTS SCT120 19/11 A2989 RMK AO2 T01920107
KEAN 240035Z AUTO 05007KT 10SM CLR 20/11 A2988 RMK AO2 LTG DSNT E T01950108
KEAN 240015Z AUTO 01008KT 10SM CLR 20/10 A2988 RMK AO2 LTG DSNT NW T02020099
KEAN 232355Z AUTO 34009KT 10SM SCT100 21/09 A2989 RMK AO2 LTG DSNT N T02050090 10288 20205
KEAN 232335Z AUTO 32010G18KT 10SM SCT100 21/09 A2989 RMK AO2 LTG DSNT N T02050088
KEAN 232315Z AUTO 32014G26KT 10SM CLR 21/09 A2987 RMK AO2 LTG DSNT NE T02070086
KEAN 232255Z AUTO 32017G22KT 10SM SCT085 SCT110 22/08 A2985 RMK AO2 LTG DSNT N AND NW T02180076
KEAN 232235Z AUTO 31007KT 10SM VCTS BKN110 24/09 A2986 RMK AO2 LTG DSNT W THRU N T02350087
KEAN 232215Z AUTO 00000KT 10SM SCT090 BKN110 23/06 A2984 RMK AO2 T02300056
KEAN 232155Z AUTO 28014G22KT 10SM -RA SCT090 BKN110 23/05 A2984 RMK AO2 LTG DSNT N T02310050
KEAN 232135Z AUTO 33005KT 10SM CLR 27/02 A2980 RMK AO2 LTG DSNT N T02650019
KEAN 232115Z AUTO 29004KT 10SM CLR 28/03 A2980 RMK AO2 T02800025
KEAN 232055Z AUTO 00000KT 10SM CLR 28/03 A2980 RMK AO2 T02840031
KEAN 232035Z AUTO 25007KT 10SM SCT110 27/03 A2981 RMK AO2 T02730029
KEAN 232015Z AUTO 25006KT 10SM SCT110 28/01 A2982 RMK AO2 T02800011
KEAN 231955Z AUTO 27009KT 240V310 10SM SCT110 28/03 A2983 RMK AO2 T02840034
KEAN 231935Z AUTO 24008KT 10SM BKN110 27/02 A2984 RMK AO2 T02660017
KEAN 231915Z AUTO 16003KT 10SM BKN100 BKN120 26/05 A2985 RMK AO2 T02570054
KEAN 231855Z AUTO 10SM BKN100 BKN120 26/05 A2986 RMK AO2 T02570054
KEAN 231835Z AUTO 14003KT 10SM SCT085 SCT120 26/05 A2987 RMK AO2 T02590050
KEAN 231815Z AUTO 00000KT 10SM SCT085 BKN120 26/06 A2988 RMK AO2 T02550061
KEAN 231755Z AUTO 00000KT 10SM SCT085 SCT120 26/06 A2989 RMK AO2 T02620061 10262 20137
KEAN 231735Z AUTO 00000KT 10SM CLR 26/07 A2989 RMK AO2 T02580071
KEAN 231715Z AUTO 00000KT 10SM CLR 25/06 A2990 RMK AO2 T02470064
KEAN 231655Z AUTO 24005KT 10SM CLR 25/06 A2990 RMK AO2 T02500058
KEAN 231635Z AUTO 24005KT 10SM CLR 25/07 A2991 RMK AO2 T02500073
KEAN 231615Z AUTO 23004KT 10SM CLR 24/08 A2992 RMK AO2 T02430082
KEAN 231555Z AUTO 00000KT 10SM CLR 24/08 A2992 RMK AO2 T02370077
KEAN 231535Z AUTO 21006KT 10SM CLR 23/08 A2992 RMK AO2 T02310080
KEAN 231515Z AUTO 13004KT 10SM CLR 23/09 A2993 RMK AO2 T02250094
KEAN 231455Z AUTO 22005KT 10SM CLR 22/10 A2993 RMK AO2 T02180098
KEAN 231435Z AUTO 20006KT 10SM CLR 21/10 A2993 RMK AO2 T02080098
KEAN 231415Z AUTO 20007KT 10SM CLR 20/10 A2993 RMK AO2 T01980101
KEAN 231355Z AUTO 19006KT 10SM CLR 19/10 A2993 RMK AO2 T01880100
KEAN 231335Z AUTO 19004KT 10SM CLR 18/10 A2993 RMK AO2 T01770100
KEAN 231315Z AUTO 20007KT 10SM CLR 17/10 A2993 RMK AO2 T01670097
KEAN 231255Z AUTO 19007KT 10SM CLR 16/09 A2993 RMK AO2 T01580094
KEAN 231235Z AUTO 19006KT 10SM CLR 15/09 A2992 RMK AO2 T01470089
KEAN 231215Z AUTO 19006KT 10SM CLR 14/09 A2992 RMK AO2 T01440090
KEAN 231155Z AUTO 20007KT 10SM CLR 14/09 A2992 RMK AO2 T01360087 10159 20125
KEAN 231135Z AUTO 19006KT 10SM CLR 14/09 A2993 RMK AO2 T01430086
KEAN 231115Z AUTO 20006KT 10SM CLR 13/09 A2993 RMK AO2 T01340088
KEAN 231055Z AUTO 19004KT 10SM CLR 13/09 A2993 RMK AO2 T01310090
KEAN 231035Z AUTO 20006KT 10SM CLR 13/09 A2993 RMK AO2 T01310090
KEAN 231015Z AUTO 19008KT 10SM CLR 13/09 A2994 RMK AO2 T01300090
KEAN 230955Z AUTO 19007KT 10SM SCT110 13/09 A2995 RMK AO2 T01250093
KEAN 230935Z AUTO 19006KT 10SM SCT110 13/10 A2995 RMK AO2 T01280095
KEAN 230915Z AUTO 18005KT 10SM CLR 13/10 A2996 RMK AO2 T01270099
KEAN 230855Z AUTO 19006KT 10SM CLR 13/11 A2997 RMK AO2 T01280105